Time;durP1;ratioP1;P1;durP2;ratioP2;P2;SDS_P1;SDS_P2;PMS_P1;PMS_P2;Temp;Humidity;BMP_temperature;BMP_pressure;BME280_temperature;BME280_humidity;BME280_pressure;Samples;Min_cycle;Max_cycle;Signal;HPM_P1;HPM_P2
2022/12/19 00:02:18;;;;;;;39.38;19.15;;;;;;;-9.40;76.21;101306.97;1672544;84;21021;-90
2022/12/19 00:04:45;;;;;;;42.27;19.30;;;;;;;-9.34;76.38;101315.31;1674073;84;21043;-90
2022/12/19 00:07:12;;;;;;;38.07;19.50;;;;;;;-9.34;76.35;101299.73;1673968;84;21140;-91
2022/12/19 00:09:38;;;;;;;35.78;17.20;;;;;;;-9.35;76.31;101285.35;1672597;84;21609;-90
2022/12/19 00:12:05;;;;;;;35.30;18.27;;;;;;;-9.31;76.38;101287.26;1681411;84;21625;-91
2022/12/19 00:14:32;;;;;;;36.63;19.32;;;;;;;-9.32;76.28;101289.32;1677845;84;21066;-89
2022/12/19 00:16:58;;;;;;;44.33;20.00;;;;;;;-9.33;76.29;101281.23;1678316;84;21047;-89
2022/12/19 00:19:25;;;;;;;41.37;18.97;;;;;;;-9.36;76.23;101282.32;1676077;84;21159;-88
2022/12/19 00:21:51;;;;;;;43.67;19.27;;;;;;;-9.40;76.25;101270.30;1679488;84;21030;-87
2022/12/19 00:24:18;;;;;;;41.33;19.17;;;;;;;-9.37;76.32;101262.88;1676475;84;21529;-88
2022/12/19 00:26:45;;;;;;;46.40;22.20;;;;;;;-9.41;76.30;101262.20;1674394;84;21018;-85
2022/12/19 00:29:11;;;;;;;36.30;17.87;;;;;;;-9.38;76.46;101258.62;1678523;84;21165;-87
2022/12/19 00:31:41;;;;;;;39.10;18.97;;;;;;;-9.34;76.49;101254.20;1676556;84;21079;-87
2022/12/19 00:34:08;;;;;;;43.58;19.48;;;;;;;-9.31;76.56;101256.91;1673047;84;21100;-87
2022/12/19 00:36:35;;;;;;;42.73;20.15;;;;;;;-9.26;76.59;101256.78;1677466;84;21174;-88
2022/12/19 00:39:04;;;;;;;45.60;20.57;;;;;;;-9.25;76.56;101250.92;1678812;84;21010;-86
2022/12/19 00:41:35;;;;;;;42.23;20.92;;;;;;;-9.24;76.58;101260.28;1679887;84;20998;-84
2022/12/19 00:44:06;;;;;;;42.60;19.15;;;;;;;-9.22;76.48;101249.36;1683817;84;21616;-86
2022/12/19 00:46:34;;;;;;;41.37;18.95;;;;;;;-9.24;76.46;101242.57;1668911;84;21069;-88
2022/12/19 00:49:03;;;;;;;39.90;19.77;;;;;;;-9.22;76.51;101248.09;1679653;84;21009;-85
2022/12/19 00:51:34;;;;;;;38.30;20.08;;;;;;;-9.19;76.60;101239.41;1658676;85;21086;-87
2022/12/19 00:54:42;;;;;;;38.35;18.67;;;;;;;-9.18;76.56;101233.59;1658510;85;20967;-89
2022/12/19 00:57:08;;;;;;;39.80;19.98;;;;;;;-9.19;76.58;101228.02;1650078;85;21002;-87
2022/12/19 00:59:36;;;;;;;35.97;18.37;;;;;;;-9.16;76.65;101231.99;1642274;85;20979;-85
2022/12/19 01:02:03;;;;;;;41.88;20.55;;;;;;;-9.15;76.62;101228.70;1655700;84;21055;-88
2022/12/19 01:04:30;;;;;;;38.50;19.30;;;;;;;-9.17;76.53;101231.13;1648984;85;21047;-85
2022/12/19 01:07:04;;;;;;;36.40;19.60;;;;;;;-9.18;76.59;101223.47;1647558;85;21033;-88
2022/12/19 01:09:25;;;;;;;41.33;20.32;;;;;;;-9.18;76.59;101226.00;1654616;84;21067;-86
2022/12/19 01:14:37;;;;;;;39.20;17.90;;;;;;;-9.22;76.53;101242.64;1654673;84;21135;-86
2022/12/19 01:17:03;;;;;;;35.57;17.57;;;;;;;-9.22;76.60;101237.98;1652191;85;21003;-87
2022/12/19 01:19:30;;;;;;;43.75;18.85;;;;;;;-9.24;76.52;101234.98;1645797;85;21089;-87
2022/12/19 01:21:57;;;;;;;43.00;21.30;;;;;;;-9.24;76.61;101240.04;1644063;85;21053;-88
2022/12/19 01:24:23;;;;;;;44.18;21.33;;;;;;;-9.25;76.60;101233.61;1651306;85;21021;-88
2022/12/19 01:26:50;;;;;;;36.85;18.00;;;;;;;-9.26;76.54;101225.56;1644362;85;21034;-90
2022/12/19 01:29:17;;;;;;;41.17;18.57;;;;;;;-9.28;76.59;101230.52;1613299;87;21631;-88
2022/12/19 01:31:43;;;;;;;44.50;20.23;;;;;;;-9.28;76.59;101227.98;1587913;88;22270;-87
2022/12/19 01:34:12;;;;;;;35.30;17.73;;;;;;;-9.30;76.57;101224.52;1596056;87;21286;-89
2022/12/19 01:36:43;;;;;;;31.75;16.07;;;;;;;-9.27;76.65;101233.91;1622280;87;21044;-87
2022/12/19 01:39:09;;;;;;;41.30;18.98;;;;;;;-9.27;76.68;101232.28;1616855;87;21596;-88
2022/12/19 01:41:37;;;;;;;38.73;19.27;;;;;;;-9.28;76.61;101235.58;1640633;86;21059;-87
2022/12/19 01:44:10;;;;;;;44.20;20.48;;;;;;;-9.28;76.67;101227.98;1642862;85;21016;-88
2022/12/19 01:46:52;;;;;;;48.65;20.37;;;;;;;-9.28;76.63;101225.45;1647452;84;21041;-88
2022/12/19 01:49:32;;;;;;;36.88;17.98;;;;;;;-9.27;76.69;101223.42;1654730;84;21118;-87
2022/12/19 01:52:04;;;;;;;38.02;18.02;;;;;;;-9.27;76.68;101212.05;1623112;86;21652;-87
2022/12/19 01:54:35;;;;;;;43.75;20.57;;;;;;;-9.28;76.70;101210.28;1633693;86;21550;-88
2022/12/19 01:57:06;;;;;;;41.83;18.23;;;;;;;-9.28;76.64;101206.87;1597286;88;21072;-87
2022/12/19 01:59:44;;;;;;;41.05;19.77;;;;;;;-9.31;76.60;101202.52;1586096;89;21088;-87
2022/12/19 02:02:31;;;;;;;38.13;18.75;;;;;;;-9.33;76.65;101193.96;1638507;85;21538;-86
2022/12/19 02:05:03;;;;;;;37.45;18.73;;;;;;;-9.34;76.59;101196.42;1628562;86;21167;-89
2022/12/19 02:07:32;;;;;;;33.63;17.62;;;;;;;-9.36;76.64;101196.33;1620489;87;21011;-89
2022/12/19 02:09:59;;;;;;;33.35;17.80;;;;;;;-9.39;76.57;101192.76;1622672;86;20995;-87
2022/12/19 02:12:29;;;;;;;38.88;17.73;;;;;;;-9.39;76.63;101188.56;1592551;86;21027;-88
2022/12/19 02:15:00;;;;;;;39.88;19.12;;;;;;;-9.41;76.62;101187.60;1621923;86;21126;-89
2022/12/19 02:18:00;;;;;;;44.03;19.73;;;;;;;-9.44;76.50;101182.37;1635968;86;21630;-87
2022/12/19 02:21:14;;;;;;;37.70;18.98;;;;;;;-9.47;76.55;101174.61;1536282;91;21118;-88
2022/12/19 02:24:20;;;;;;;37.53;18.00;;;;;;;-9.48;76.65;101177.94;1540687;92;21077;-88
2022/12/19 02:27:18;;;;;;;35.78;18.62;;;;;;;-9.51;76.63;101171.45;1531770;92;21134;-89
2022/12/19 02:30:09;;;;;;;47.30;20.10;;;;;;;-9.53;76.67;101166.69;1529198;92;21621;-88
2022/12/19 02:33:03;;;;;;;36.93;17.52;;;;;;;-9.52;76.75;101162.09;1478234;94;21069;-88
2022/12/19 02:36:01;;;;;;;38.92;19.15;;;;;;;-9.51;76.78;101165.13;1468380;96;21055;-89
2022/12/19 02:38:57;;;;;;;37.58;17.95;;;;;;;-9.50;76.77;101161.80;1471516;96;21033;-87
2022/12/19 02:41:46;;;;;;;38.65;18.37;;;;;;;-9.47;76.97;101161.97;1471461;96;21143;-87
2022/12/19 02:44:27;;;;;;;37.70;18.17;;;;;;;-9.46;76.92;101146.03;1482485;95;21114;-88
2022/12/19 02:46:55;;;;;;;37.75;19.62;;;;;;;-9.43;76.94;101143.67;1485006;95;21138;-87
2022/12/19 02:49:22;;;;;;;43.63;18.15;;;;;;;-9.42;76.91;101147.93;1489812;94;21075;-86
2022/12/19 02:51:49;;;;;;;39.18;18.37;;;;;;;-9.37;76.99;101140.22;1503950;93;21165;-86
2022/12/19 02:54:15;;;;;;;39.97;18.17;;;;;;;-9.35;76.96;101138.65;1535190;90;20984;-89
2022/12/19 02:57:05;;;;;;;35.80;17.50;;;;;;;-9.33;76.97;101131.99;1570240;90;21109;-88
2022/12/19 02:59:49;;;;;;;34.90;16.87;;;;;;;-9.32;76.91;101132.48;1566496;90;21552;-89
2022/12/19 03:02:44;;;;;;;37.35;18.30;;;;;;;-9.32;76.80;101130.36;1572811;90;21646;-90
2022/12/19 03:05:31;;;;;;;40.52;19.48;;;;;;;-9.33;76.94;101121.87;1594840;87;21089;-88
2022/12/19 03:08:09;;;;;;;40.38;19.75;;;;;;;-9.30;76.94;101123.34;1645942;85;21516;-89
2022/12/19 03:10:50;;;;;;;39.33;19.12;;;;;;;-9.29;76.92;101121.27;1640466;86;21062;-88
2022/12/19 03:13:45;;;;;;;36.83;16.95;;;;;;;-9.27;76.89;101112.12;1621514;86;21372;-89
2022/12/19 03:16:12;;;;;;;40.50;19.27;;;;;;;-9.30;76.75;101108.16;1624291;86;21085;-89
2022/12/19 03:18:40;;;;;;;41.88;19.85;;;;;;;-9.33;76.75;101109.23;1629947;86;20983;-88
2022/12/19 03:21:16;;;;;;;;;;;;;;;-9.33;76.79;101104.17;1628159;86;21058;-90
2022/12/19 03:23:45;;;;;;;35.90;18.05;;;;;;;-9.32;76.80;101108.86;1616074;86;20116;-90
2022/12/19 03:26:19;;;;;;;25.77;13.78;;;;;;;-9.33;76.78;101105.44;1625910;86;21003;-89
2022/12/19 03:28:57;;;;;;;36.17;17.65;;;;;;;-9.34;76.69;101098.64;1623012;86;20955;-89
2022/12/19 03:31:31;;;;;;;41.48;17.90;;;;;;;-9.37;76.68;101092.16;1627461;86;21055;-88
2022/12/19 03:34:05;;;;;;;40.00;19.92;;;;;;;-9.38;76.67;101085.37;1635197;86;21030;-89
2022/12/19 03:36:40;;;;;;;38.42;18.82;;;;;;;-9.40;76.67;101081.88;1625130;86;21122;-90
2022/12/19 03:39:09;;;;;;;37.15;18.40;;;;;;;-9.42;76.66;101083.44;1635658;85;21485;-84
2022/12/19 03:44:28;;;;;;;36.53;19.05;;;;;;;-9.43;76.74;101080.45;1606934;86;21042;-86
2022/12/19 03:47:18;;;;;;;44.70;18.57;;;;;;;-9.40;76.73;101080.61;1636265;85;21058;-89
2022/12/19 03:49:46;;;;;;;40.65;20.12;;;;;;;-9.43;76.65;101077.92;1637380;86;21542;-88
2022/12/19 03:52:30;;;;;;;38.58;19.60;;;;;;;-9.41;76.72;101072.92;1656495;84;21143;-89
2022/12/19 03:55:24;;;;;;;38.88;19.62;;;;;;;-9.42;76.68;101064.47;1666505;84;21053;-87
2022/12/19 03:58:01;;;;;;;37.03;18.27;;;;;;;-9.42;76.76;101067.00;1672034;84;21089;-87
2022/12/19 04:00:30;;;;;;;36.58;17.62;;;;;;;-9.40;76.77;101061.64;1669727;84;20976;-88
2022/12/19 04:02:58;;;;;;;41.37;19.50;;;;;;;-9.38;76.77;101060.08;1672535;84;21652;-86
2022/12/19 04:05:27;;;;;;;44.90;19.60;;;;;;;-9.37;76.80;101059.67;1670797;84;21057;-85
2022/12/19 04:07:59;;;;;;;42.30;20.05;;;;;;;-9.35;76.79;101066.56;1673303;84;21105;-89
2022/12/19 04:10:29;;;;;;;35.83;17.98;;;;;;;-9.35;76.84;101066.56;1674413;83;20991;-88
2022/12/19 04:13:04;;;;;;;37.98;18.75;;;;;;;-9.33;76.78;101067.49;1669824;84;21166;-89
2022/12/19 04:16:06;;;;;;;42.40;20.15;;;;;;;-9.33;76.80;101062.44;1676658;84;21031;-86
2022/12/19 04:18:35;;;;;;;37.20;16.87;;;;;;;-9.31;76.90;101065.06;1639830;86;21119;-89
2022/12/19 04:21:10;;;;;;;36.38;18.10;;;;;;;-9.25;77.00;101050.20;1667698;84;20931;-86
2022/12/19 04:23:47;;;;;;;39.03;17.45;;;;;;;-9.22;77.05;101052.89;1676796;84;21015;-90
2022/12/19 04:26:16;;;;;;;37.63;16.97;;;;;;;-9.19;77.02;101053.45;1654826;86;21026;-86
2022/12/19 04:28:55;;;;;;;36.53;17.75;;;;;;;-9.16;77.06;101052.35;1670924;84;21042;-89
2022/12/19 04:31:23;;;;;;;33.70;16.35;;;;;;;-9.10;77.15;101050.14;1674813;84;21676;-87
2022/12/19 04:33:50;;;;;;;;;;;;;;;-9.05;77.19;101048.73;1670784;84;20972;-87
2022/12/19 04:36:16;;;;;;;30.37;15.40;;;;;;;-9.03;77.22;101045.49;1639971;86;20166;-86
2022/12/19 04:38:43;;;;;;;33.67;15.95;;;;;;;-8.99;77.28;101043.98;1669352;84;20968;-87
2022/12/19 04:41:14;;;;;;;34.67;16.60;;;;;;;-8.95;77.29;101040.84;1671461;84;21073;-89
2022/12/19 04:43:41;;;;;;;31.93;15.18;;;;;;;-8.92;77.23;101033.41;1641778;86;21029;-89
2022/12/19 04:46:07;;;;;;;35.47;15.47;;;;;;;-8.88;77.25;101032.76;1665576;84;20953;-88
2022/12/19 04:48:41;;;;;;;35.73;16.07;;;;;;;-8.85;77.24;101030.78;1670692;84;21531;-85
2022/12/19 04:51:07;;;;;;;35.40;15.78;;;;;;;-8.83;77.26;101044.00;1657789;84;21551;-87
2022/12/19 04:53:35;;;;;;;30.00;14.70;;;;;;;-8.82;77.23;101040.70;1621850;85;21041;-85
2022/12/19 04:56:10;;;;;;;;;;;;;;;-8.80;77.22;101039.09;1636769;85;21054;-88
2022/12/19 04:58:42;;;;;;;30.55;13.93;;;;;;;-8.79;77.22;101033.26;1603180;87;20164;-87
2022/12/19 05:01:13;;;;;;;26.03;15.03;;;;;;;-8.76;77.26;101034.18;1627860;85;21056;-88
2022/12/19 05:03:43;;;;;;;28.95;14.60;;;;;;;-8.73;77.30;101029.30;1621449;86;21534;-86
2022/12/19 05:06:13;;;;;;;30.75;15.43;;;;;;;-8.72;77.27;101031.03;1621535;86;21074;-87
2022/12/19 05:08:42;;;;;;;30.75;14.53;;;;;;;-8.71;77.21;101023.90;1618206;85;21057;-88
2022/12/19 05:11:12;;;;;;;30.68;16.25;;;;;;;-8.70;77.23;101029.45;1605316;86;21081;-86
2022/12/19 05:13:38;;;;;;;31.82;15.68;;;;;;;-8.66;77.34;101028.81;1607109;87;21110;-88
2022/12/19 05:16:08;;;;;;;33.30;15.43;;;;;;;-8.63;77.35;101026.43;1622718;86;21028;-90
2022/12/19 05:18:37;;;;;;;25.80;14.90;;;;;;;-8.61;77.34;101017.25;1618237;86;21055;-87
2022/12/19 05:21:04;;;;;;;29.95;14.90;;;;;;;-8.59;77.34;101013.14;1619646;86;20999;-87
2022/12/19 05:23:31;;;;;;;31.50;15.20;;;;;;;-8.56;77.41;101005.70;1623885;85;21018;-87
2022/12/19 05:26:04;;;;;;;29.60;15.98;;;;;;;-8.53;77.49;101000.78;1618852;85;21120;-87
2022/12/19 05:28:33;;;;;;;32.65;16.02;;;;;;;-8.49;77.43;101000.53;1614415;86;21105;-87
2022/12/19 05:31:12;;;;;;;;;;;;;;;-8.43;77.55;101004.62;1605079;85;21105;-86
2022/12/19 05:33:39;;;;;;;26.57;14.43;;;;;;;-8.41;77.46;101000.11;1606855;86;20150;-86
2022/12/19 05:36:07;;;;;;;28.83;14.73;;;;;;;-8.41;77.47;100987.45;1617413;86;20985;-87
2022/12/19 05:38:39;;;;;;;29.48;14.35;;;;;;;-8.37;77.62;100982.13;1599894;87;21147;-87
2022/12/19 05:41:10;;;;;;;29.42;15.98;;;;;;;-8.31;77.70;100982.83;1624170;85;21536;-86
2022/12/19 05:43:42;;;;;;;28.95;15.30;;;;;;;-8.26;77.66;100977.55;1620701;86;21055;-89
2022/12/19 05:46:12;;;;;;;29.32;15.85;;;;;;;-8.21;77.68;100979.92;1622426;86;21028;-87
2022/12/19 05:48:39;;;;;;;29.20;15.40;;;;;;;-8.19;77.66;100970.73;1629827;85;21018;-87
2022/12/19 05:51:07;;;;;;;27.82;15.70;;;;;;;-8.17;77.65;100962.41;1622056;86;21101;-87
2022/12/19 05:53:37;;;;;;;27.55;14.43;;;;;;;-8.13;77.70;100954.55;1617130;87;21125;-89
2022/12/19 05:59:22;;;;;;;27.55;14.85;;;;;;;-8.04;77.74;100957.51;1554107;88;21162;-88
2022/12/19 06:01:46;;;;;;;30.35;15.95;;;;;;;-8.00;77.80;100951.80;1590883;89;21002;-87
2022/12/19 06:04:13;;;;;;;30.77;15.13;;;;;;;-7.94;77.85;100952.09;1586876;88;21060;-87
2022/12/19 06:06:40;;;;;;;28.00;15.48;;;;;;;-7.89;77.80;100950.64;1617812;86;21072;-88
2022/12/19 06:09:07;;;;;;;30.82;16.45;;;;;;;-7.86;77.80;100955.39;1622413;86;21006;-88
2022/12/19 06:11:33;;;;;;;29.82;14.60;;;;;;;-7.84;77.77;100949.97;1586566;88;21061;-85
2022/12/19 06:14:13;;;;;;;;;;;;;;;;;;;;;
2022/12/19 06:16:34;;;;;;;34.05;16.60;;;;;;;-7.77;77.84;100951.60;1534615;91;21499;-85
2022/12/19 06:19:00;;;;;;;27.97;16.20;;;;;;;-7.73;77.84;100951.34;1541310;91;21735;-86
2022/12/19 06:21:27;;;;;;;28.80;15.70;;;;;;;-7.69;77.84;100946.89;1536397;91;21600;-85
2022/12/19 06:23:59;;;;;;;33.63;16.82;;;;;;;-7.67;77.79;100936.42;1510438;92;21152;-85
2022/12/19 06:26:36;;;;;;;33.85;16.48;;;;;;;-7.66;77.73;100941.95;1508053;92;21629;-86
2022/12/19 06:29:03;;;;;;;28.23;15.20;;;;;;;-7.63;77.78;100935.75;1480260;95;21212;-85
2022/12/19 06:31:32;;;;;;;27.95;14.47;;;;;;;-7.62;77.72;100932.41;1539727;91;21605;-85
2022/12/19 06:34:00;;;;;;;35.68;18.37;;;;;;;-7.60;77.72;100925.74;1544040;90;21194;-86
2022/12/19 06:36:30;;;;;;;33.87;17.00;;;;;;;-7.62;77.71;100927.33;1539627;91;21084;-87
2022/12/19 06:39:09;;;;;;;33.23;16.80;;;;;;;-7.61;77.68;100929.09;1542750;90;21639;-85
2022/12/19 06:48:29;;;;;;;38.73;18.20;;;;;;;-7.60;77.69;100923.20;1405424;100;21195;-85
2022/12/19 06:50:59;;;;;;;49.98;28.17;;;;;;;-7.60;77.68;100920.67;1411962;100;21131;-85
2022/12/19 06:53:34;;;;;;;93.22;49.55;;;;;;;-7.56;77.75;100917.48;1442862;97;21182;-87
2022/12/19 06:56:15;;;;;;;42.73;23.52;;;;;;;-7.55;77.67;100914.14;1458280;97;21136;-85
2022/12/19 06:58:47;;;;;;;40.10;21.70;;;;;;;-7.62;77.67;100898.16;1461855;97;21201;-86
2022/12/19 07:05:15;;;;;;;39.23;20.37;;;;;;;-7.47;77.80;100901.80;1378791;101;21102;-85
2022/12/19 07:07:43;;;;;;;41.60;22.67;;;;;;;-7.43;77.85;100896.91;1372418;103;21174;-90
2022/12/19 07:10:15;;;;;;;42.83;24.40;;;;;;;-7.37;77.90;100888.70;1370512;103;21354;-94
2022/12/19 07:12:40;;;;;;;36.50;19.52;;;;;;;-7.32;77.92;100883.84;1372586;102;21749;-85
2022/12/19 07:15:12;;;;;;;33.85;16.85;;;;;;;-7.29;77.93;100877.22;1369867;103;21249;-84
2022/12/19 07:18:01;;;;;;;;;;;;;;;;;;;;;
2022/12/19 07:20:22;;;;;;;37.80;19.40;;;;;;;-7.17;78.02;100883.20;1328055;106;22262;-87
2022/12/19 07:22:51;;;;;;;39.23;20.45;;;;;;;-7.09;78.06;100872.98;1310336;107;21686;-95
2022/12/19 07:25:19;;;;;;;38.35;17.92;;;;;;;-7.04;77.98;100888.02;1356808;102;21253;-89
2022/12/19 07:27:47;;;;;;;37.17;20.33;;;;;;;-6.99;78.00;100882.73;1339458;104;21208;-82
2022/12/19 07:30:13;;;;;;;;;;;;;;;-6.94;77.98;100880.80;1364154;103;21687;-85
2022/12/19 07:32:39;;;;;;;34.87;18.27;;;;;;;-6.87;78.04;100884.05;1362164;103;20229;-86
2022/12/19 07:35:07;;;;;;;33.27;18.07;;;;;;;-6.79;78.19;100873.81;1338947;105;21141;-87
2022/12/19 07:37:33;;;;;;;35.43;17.55;;;;;;;-6.69;78.12;100865.77;1359580;103;21222;-86
2022/12/19 07:40:00;;;;;;;34.13;19.00;;;;;;;-6.64;78.08;100865.52;1463728;92;21182;-87
2022/12/19 07:42:29;;;;;;;34.00;19.00;;;;;;;-6.56;78.09;100864.16;1530383;91;21625;-87
2022/12/19 07:44:56;;;;;;;33.67;18.57;;;;;;;-6.49;78.06;100856.81;1530999;92;21787;-85
2022/12/19 07:47:22;;;;;;;34.60;18.17;;;;;;;-6.43;78.05;100854.50;1525304;92;21152;-87
2022/12/19 07:49:49;;;;;;;37.23;19.25;;;;;;;-6.36;78.09;100852.65;1547372;90;21252;-90
2022/12/19 07:52:16;;;;;;;39.80;18.83;;;;;;;-6.29;78.13;100847.01;1570647;89;21190;-89
2022/12/19 07:54:50;;;;;;;32.23;18.00;;;;;;;-6.22;78.11;100838.80;1570376;89;21151;-89
2022/12/19 07:57:15;;;;;;;31.00;17.50;;;;;;;-6.16;78.03;100840.33;1592963;85;21526;-85
2022/12/19 07:59:41;;;;;;;36.70;19.62;;;;;;;-6.11;78.01;100836.25;1667168;84;21152;-86
2022/12/19 08:02:10;;;;;;;37.33;19.32;;;;;;;-6.04;78.02;100836.52;1669289;84;21042;-87
2022/12/19 08:04:46;;;;;;;33.20;18.55;;;;;;;-5.99;77.99;100845.16;1674191;84;20974;-88
2022/12/19 08:07:11;;;;;;;33.63;18.77;;;;;;;-5.96;78.01;100852.92;1668841;84;20960;-86
2022/12/19 08:09:38;;;;;;;33.97;17.57;;;;;;;-5.93;77.86;100850.49;1676241;83;21045;-86
2022/12/19 08:12:05;;;;;;;30.90;17.92;;;;;;;-5.87;77.96;100862.12;1665034;84;21053;-84
2022/12/19 08:14:31;;;;;;;35.70;17.62;;;;;;;-5.83;77.90;100855.05;1675005;84;21007;-87
2022/12/19 08:17:00;;;;;;;35.35;19.25;;;;;;;-5.77;77.93;100857.86;1672056;84;21498;-85
2022/12/19 08:19:27;;;;;;;30.08;18.20;;;;;;;-5.74;77.89;100850.33;1670558;84;21555;-87
2022/12/19 08:21:53;;;;;;;30.40;17.40;;;;;;;-5.68;77.87;100851.82;1667051;84;20987;-87
2022/12/19 08:24:20;;;;;;;34.53;19.70;;;;;;;-5.63;77.84;100840.14;1668617;84;21610;-87
2022/12/19 08:26:46;;;;;;;30.00;19.45;;;;;;;-5.59;77.88;100837.70;1667707;84;21002;-85
2022/12/19 08:29:13;;;;;;;33.55;19.20;;;;;;;-5.50;77.96;100825.30;1669535;83;21038;-87
2022/12/19 08:31:42;;;;;;;32.55;18.50;;;;;;;-5.39;78.00;100817.63;1669822;84;21066;-88
2022/12/19 08:34:09;;;;;;;35.88;18.65;;;;;;;-5.32;78.00;100806.85;1669992;84;21093;-87
2022/12/19 08:36:40;;;;;;;34.53;23.52;;;;;;;-5.22;78.05;100803.78;1667876;84;21527;-86
2022/12/19 08:39:07;;;;;;;55.52;26.50;;;;;;;-5.12;78.04;100799.02;1670805;84;21071;-84
2022/12/19 08:41:33;;;;;;;52.20;28.95;;;;;;;-5.02;78.07;100795.94;1668012;84;21106;-84
2022/12/19 08:44:02;;;;;;;74.23;39.97;;;;;;;-4.99;77.95;100787.13;1667985;84;21065;-85
2022/12/19 08:46:28;;;;;;;95.62;51.08;;;;;;;-4.90;77.97;100791.27;1666003;84;21093;-88
2022/12/19 08:48:55;;;;;;;110.70;54.83;;;;;;;-4.81;78.11;100776.27;1673131;84;21026;-91
2022/12/19 08:51:24;;;;;;;96.80;47.08;;;;;;;-4.78;77.94;100770.41;1676927;84;20996;-92
2022/12/19 08:53:53;;;;;;;166.73;77.40;;;;;;;-4.72;77.93;100768.91;1649014;84;21089;-92
2022/12/19 08:56:21;;;;;;;222.12;94.40;;;;;;;-4.64;77.94;100763.20;1617635;87;21092;-86
2022/12/19 08:58:50;;;;;;;96.87;46.63;;;;;;;-4.56;77.95;100761.75;1646251;85;21038;-86
2022/12/19 09:01:22;;;;;;;75.35;38.08;;;;;;;-4.40;78.07;100766.46;1655091;84;21042;-87
2022/12/19 09:03:48;;;;;;;40.95;24.20;;;;;;;-4.31;77.87;100762.94;1645805;84;21042;-90
2022/12/19 09:06:16;;;;;;;72.35;35.40;;;;;;;-4.23;77.78;100758.45;1650702;85;21066;-86
2022/12/19 09:08:43;;;;;;;;;;;;;;;-4.15;77.93;100746.78;1648416;85;21679;-86
2022/12/19 09:11:15;;;;;;;44.58;24.25;;;;;;;-4.09;77.71;100740.20;1636757;84;20494;-94
2022/12/19 09:13:43;;;;;;;76.42;36.17;;;;;;;-4.10;77.68;100735.89;1640603;85;21102;-86
2022/12/19 09:16:20;;;;;;;89.62;38.70;;;;;;;-4.08;77.70;100720.64;1649512;85;21603;-89
2022/12/19 09:18:55;;;;;;;250.97;98.45;;;;;;;-4.08;77.64;100715.55;1656213;85;21025;-89
2022/12/19 09:21:26;;;;;;;141.95;59.08;;;;;;;-4.07;77.68;100712.16;1642984;85;21145;-85
2022/12/19 09:23:56;;;;;;;86.15;39.35;;;;;;;-4.05;77.58;100701.18;1648427;85;21007;-90
2022/12/19 09:26:24;;;;;;;60.08;30.40;;;;;;;-4.01;77.56;100697.02;1657567;85;21621;-93
2022/12/19 09:28:52;;;;;;;92.75;41.70;;;;;;;-3.96;77.61;100695.46;1623393;85;21025;-92
2022/12/19 09:31:23;;;;;;;62.23;39.03;;;;;;;-3.94;77.66;100675.97;1640397;85;20998;-86
2022/12/19 09:33:51;;;;;;;41.18;29.50;;;;;;;-3.91;77.55;100690.08;1646238;85;20944;-91
2022/12/19 09:36:23;;;;;;;37.88;24.15;;;;;;;-3.91;77.41;100672.22;1635942;85;21058;-85
2022/12/19 09:38:53;;;;;;;32.42;18.77;;;;;;;-3.88;77.41;100675.27;1643326;85;21045;-89
2022/12/19 09:41:52;;;;;;;35.70;20.45;;;;;;;-3.85;77.43;100678.75;1635777;85;21041;-89
2022/12/19 09:44:52;;;;;;;61.50;33.70;;;;;;;-3.82;77.41;100666.06;1647448;85;21604;-92
2022/12/19 09:47:22;;;;;;;33.35;19.87;;;;;;;-3.78;77.35;100666.14;1647020;84;21537;-91
2022/12/19 09:49:51;;;;;;;36.70;18.77;;;;;;;-3.76;77.22;100664.50;1623069;85;21076;-90
2022/12/19 09:52:35;;;;;;;30.15;18.42;;;;;;;-3.72;77.23;100658.67;1651182;84;21102;-88
2022/12/19 09:55:26;;;;;;;37.15;22.98;;;;;;;-3.69;77.22;100663.85;1676333;83;21617;-88
2022/12/19 09:58:21;;;;;;;54.93;29.95;;;;;;;-3.72;77.00;100654.84;1672504;84;21656;-88
2022/12/19 10:00:55;;;;;;;104.67;55.98;;;;;;;-3.67;77.07;100654.52;1667341;84;21011;-89
2022/12/19 10:03:33;;;;;;;36.98;21.90;;;;;;;-3.65;76.94;100650.33;1679100;84;21117;-90
2022/12/19 10:06:08;;;;;;;35.92;18.77;;;;;;;-3.74;76.73;100660.31;1662425;84;20972;-84
2022/12/19 10:08:39;;;;;;;32.25;18.10;;;;;;;-3.71;76.86;100657.84;1664980;84;21570;-89
2022/12/19 10:11:20;;;;;;;30.30;17.85;;;;;;;-3.70;76.85;100651.89;1670017;84;21106;-90
2022/12/19 10:14:44;;;;;;;28.73;17.65;;;;;;;-3.67;76.75;100643.03;1661018;84;21522;-86
2022/12/19 10:17:28;;;;;;;31.10;16.52;;;;;;;-3.66;76.67;100649.89;1667510;84;21095;-88
2022/12/19 10:20:15;;;;;;;35.68;19.77;;;;;;;-3.67;76.72;100636.66;1675762;84;20965;-88
2022/12/19 10:23:11;;;;;;;32.17;17.90;;;;;;;-3.61;76.79;100626.63;1679234;84;21070;-86
2022/12/19 10:25:52;;;;;;;30.55;17.40;;;;;;;-3.50;76.75;100625.19;1671881;84;21133;-89
2022/12/19 10:28:54;;;;;;;41.95;27.15;;;;;;;-3.47;76.67;100624.41;1674600;84;21022;-88
2022/12/19 10:31:52;;;;;;;35.13;19.12;;;;;;;-3.44;76.63;100617.67;1655723;84;21299;-88
2022/12/19 10:34:29;;;;;;;30.95;17.55;;;;;;;-3.33;76.58;100618.31;1657437;84;21003;-89
2022/12/19 10:37:00;;;;;;;30.68;19.48;;;;;;;-3.31;76.51;100604.76;1658196;85;21483;-89
2022/12/19 10:40:14;;;;;;;31.75;18.12;;;;;;;-3.30;76.45;100600.12;1647386;85;21652;-90
2022/12/19 10:42:33;;;;;;;36.90;18.12;;;;;;;-3.25;76.53;100588.71;1666711;84;21598;-92
2022/12/19 10:45:13;;;;;;;32.03;18.32;;;;;;;-3.14;76.42;100580.88;1663906;84;21029;-90
2022/12/19 10:47:41;;;;;;;29.30;17.45;;;;;;;-3.11;76.45;100564.75;1653735;84;21088;-88
2022/12/19 10:50:21;;;;;;;29.15;17.27;;;;;;;-3.09;76.33;100565.66;1665533;84;21130;-92
2022/12/19 10:53:06;;;;;;;31.95;17.23;;;;;;;-3.04;76.27;100549.59;1662847;84;21718;-95
2022/12/19 10:55:44;;;;;;;31.25;17.70;;;;;;;-3.00;76.36;100548.81;1656813;84;21062;-87
2022/12/19 10:58:33;;;;;;;29.27;16.37;;;;;;;-2.87;76.46;100529.49;1641826;85;21139;-87
2022/12/19 11:01:14;;;;;;;29.27;16.75;;;;;;;-2.78;76.37;100533.92;1651255;85;21088;-87
2022/12/19 11:03:45;;;;;;;33.20;18.65;;;;;;;-2.73;76.21;100537.44;1656437;85;21569;-88
2022/12/19 11:06:43;;;;;;;32.53;17.65;;;;;;;-2.71;76.13;100531.95;1642373;84;21079;-89
2022/12/19 11:09:28;;;;;;;29.48;17.25;;;;;;;-2.67;76.21;100532.44;1650125;85;21113;-90
2022/12/19 11:14:44;;;;;;;31.25;18.55;;;;;;;-2.67;75.87;100527.33;1630011;85;21109;-88
2022/12/19 11:17:28;;;;;;;30.62;19.07;;;;;;;-2.70;75.91;100511.94;1644943;85;21062;-86
2022/12/19 11:19:56;;;;;;;29.55;17.82;;;;;;;-2.64;76.06;100511.19;1613593;86;21086;-93
2022/12/19 11:22:34;;;;;;;26.52;16.85;;;;;;;-2.59;76.01;100504.05;1647661;85;21477;-91
2022/12/19 11:25:02;;;;;;;30.02;18.55;;;;;;;-2.62;75.76;100493.77;1649493;83;21552;-87
2022/12/19 11:27:45;;;;;;;33.25;17.85;;;;;;;-2.62;75.90;100487.38;1656552;84;21568;-87
2022/12/19 11:30:22;;;;;;;29.80;17.15;;;;;;;-2.54;75.87;100499.88;1655295;84;21030;-89
2022/12/19 11:33:16;;;;;;;30.60;17.20;;;;;;;-2.55;75.72;100486.67;1628536;85;21940;-84
2022/12/19 11:35:54;;;;;;;30.62;17.40;;;;;;;-2.55;75.65;100491.78;1601158;87;21555;-88
2022/12/19 11:38:42;;;;;;;30.08;18.20;;;;;;;-2.56;75.62;100481.09;1607319;87;21633;-88
2022/12/19 11:41:37;;;;;;;30.97;17.90;;;;;;;-2.57;75.59;100478.09;1596075;87;21064;-86
2022/12/19 11:44:17;;;;;;;30.82;17.92;;;;;;;-2.52;75.59;100466.27;1608442;87;21008;-88
2022/12/19 11:46:55;;;;;;;32.42;17.87;;;;;;;-2.50;75.62;100459.45;1561561;90;21147;-88
2022/12/19 11:49:40;;;;;;;34.08;18.45;;;;;;;-2.40;75.61;100448.13;1558405;90;21660;-90
2022/12/19 11:52:30;;;;;;;29.98;18.60;;;;;;;-2.31;75.64;100441.88;1554796;90;21141;-95
2022/12/19 11:55:06;;;;;;;26.97;18.12;;;;;;;-2.26;75.46;100429.61;1573827;89;21118;-85
2022/12/19 11:57:37;;;;;;;24.55;15.32;;;;;;;-2.22;75.48;100429.23;1580699;89;21209;-90
2022/12/19 12:00:09;;;;;;;26.40;16.48;;;;;;;-2.19;75.33;100426.71;1575365;89;21130;-85
2022/12/19 12:03:14;;;;;;;29.63;18.32;;;;;;;-2.21;75.27;100415.62;1578389;89;21209;-85
2022/12/19 12:05:59;;;;;;;31.65;17.52;;;;;;;-2.19;75.26;100408.80;1539306;89;21261;-85